createdAt,value
2022-10-31T00:00:25.730Z,100987.15
2022-10-31T00:30:49.737Z,100987.52
2022-10-31T01:00:52.658Z,100994.52
2022-10-31T01:30:56.751Z,100999.09
2022-10-31T02:01:03.348Z,101011.52
2022-10-31T02:31:10.266Z,101009.87
2022-10-31T03:01:13.792Z,101022.17
2022-10-31T03:31:17.726Z,101019.95
2022-10-31T04:01:20.661Z,101015.73
2022-10-31T04:31:24.709Z,101034.71
2022-10-31T05:01:28.400Z,101040.94
2022-10-31T05:31:33.604Z,101058.41
2022-10-31T06:01:36.890Z,101080.16
2022-10-31T06:31:39.816Z,101085.31
2022-10-31T07:01:43.495Z,101136.00
2022-10-31T07:31:46.747Z,101156.24
2022-10-31T08:01:50.491Z,101152.71
2022-10-31T08:31:53.819Z,101162.44
2022-10-31T09:01:57.311Z,101165.14
2022-10-31T09:32:00.459Z,101188.72
2022-10-31T10:02:03.863Z,101193.06
2022-10-31T10:32:07.342Z,101174.47
2022-10-31T11:02:10.852Z,101160.39
2022-10-31T11:32:14.388Z,101149.09
2022-10-31T12:02:17.984Z,101141.52
2022-10-31T12:32:22.089Z,101136.27
2022-10-31T13:02:25.330Z,101119.93
2022-10-31T13:32:29.017Z,101101.84
2022-10-31T14:02:32.464Z,101095.98
2022-10-31T14:32:35.432Z,101083.45
2022-10-31T15:02:38.699Z,101097.44
2022-10-31T15:32:47.024Z,101105.78
2022-10-31T16:02:54.291Z,101117.81
2022-10-31T16:32:57.917Z,101120.67
2022-10-31T17:03:01.752Z,101129.36
2022-10-31T17:33:04.932Z,101128.45
2022-10-31T18:03:08.061Z,101124.81
2022-10-31T18:33:11.133Z,101117.71
2022-10-31T19:03:14.513Z,101098.32
2022-10-31T19:33:18.067Z,101088.41
2022-10-31T20:03:22.653Z,101086.20
2022-10-31T20:33:25.839Z,101058.58
2022-10-31T21:03:29.203Z,101053.03
2022-10-31T21:33:32.957Z,101066.50
2022-10-31T22:03:36.493Z,101035.94
2022-10-31T22:33:40.401Z,101026.19
2022-10-31T23:03:43.755Z,100997.52
2022-10-31T23:33:46.690Z,100952.98
